createdAt,value
2018-04-27T00:02:23.739Z,98368.44
2018-04-27T00:04:53.223Z,98362.59
2018-04-27T00:07:21.725Z,98363.33
2018-04-27T00:09:50.000Z,98363.47
2018-04-27T00:12:18.579Z,98364.30
2018-04-27T00:14:46.878Z,98363.59
2018-04-27T00:17:15.170Z,98373.30
2018-04-27T00:19:43.490Z,98368.95
2018-04-27T00:22:11.780Z,98363.31
2018-04-27T00:24:40.054Z,98362.48
2018-04-27T00:27:08.399Z,98359.23
2018-04-27T00:29:36.939Z,98354.13
2018-04-27T00:32:05.223Z,98363.44
2018-04-27T00:34:33.523Z,98349.58
2018-04-27T00:37:01.809Z,98346.70
2018-04-27T00:39:30.103Z,98341.41
2018-04-27T00:41:58.937Z,98344.30
2018-04-27T00:44:27.218Z,98334.61
2018-04-27T00:46:55.506Z,98336.60
2018-04-27T00:49:23.868Z,98335.00
2018-04-27T00:51:52.914Z,98336.69
2018-04-27T00:54:21.199Z,98333.60
2018-04-27T00:56:50.190Z,98324.72
2018-04-27T00:59:18.507Z,98325.06
2018-04-27T01:01:46.938Z,98326.45
2018-04-27T01:04:15.279Z,98323.62
2018-04-27T01:06:44.082Z,98331.63
2018-04-27T01:09:12.994Z,98326.30
2018-04-27T01:11:41.271Z,98331.17
2018-04-27T01:14:09.550Z,98328.86
2018-04-27T01:16:37.875Z,98328.52
2018-04-27T01:19:06.890Z,98326.94
2018-04-27T01:21:35.174Z,98328.88
2018-04-27T01:24:03.511Z,98326.75
2018-04-27T01:26:31.794Z,98319.19
2018-04-27T01:29:00.070Z,98315.17
2018-04-27T01:31:28.398Z,98314.86
2018-04-27T01:33:56.890Z,98315.22
2018-04-27T01:36:25.173Z,98318.66
2018-04-27T01:38:53.511Z,98317.47
2018-04-27T01:41:21.798Z,98308.23
2018-04-27T01:43:50.963Z,98305.52
2018-04-27T01:46:19.296Z,98298.29
2018-04-27T01:48:47.584Z,98301.80
2018-04-27T01:51:17.819Z,98299.75
2018-04-27T01:53:46.303Z,98303.11
2018-04-27T01:56:14.591Z,98299.09
2018-04-27T01:58:42.871Z,98286.66
2018-04-27T02:01:11.791Z,98283.61
2018-04-27T02:03:40.080Z,98279.34
2018-04-27T02:06:08.360Z,98279.00
2018-04-27T02:08:36.691Z,98267.38
2018-04-27T02:11:04.974Z,98265.28
2018-04-27T02:13:33.264Z,98260.63
2018-04-27T02:16:01.584Z,98260.46
2018-04-27T02:18:29.863Z,98253.08
2018-04-27T02:20:58.203Z,98256.69
2018-04-27T02:23:28.099Z,98255.66
2018-04-27T02:25:56.396Z,98255.10
2018-04-27T02:28:24.720Z,98258.49
2018-04-27T02:30:53.028Z,98250.27
2018-04-27T02:33:21.995Z,98256.47
2018-04-27T02:35:50.324Z,98246.61
2018-04-27T02:38:18.608Z,98243.05
2018-04-27T02:40:46.891Z,98245.35
2018-04-27T02:43:15.229Z,98239.05
2018-04-27T02:45:43.498Z,98232.39
2018-04-27T02:48:11.815Z,98233.77
2018-04-27T02:50:40.863Z,98233.21
2018-04-27T02:53:09.372Z,98223.69
2018-04-27T02:55:39.316Z,98225.19
2018-04-27T02:58:07.599Z,98221.41
2018-04-27T03:00:35.892Z,98221.41
2018-04-27T03:03:04.222Z,98216.86
2018-04-27T03:05:32.521Z,98219.45
2018-04-27T03:08:00.848Z,98209.42
2018-04-27T03:10:29.164Z,98215.41
2018-04-27T03:12:57.451Z,98206.83
2018-04-27T03:15:26.036Z,98202.05
2018-04-27T03:17:54.318Z,98201.34
2018-04-27T03:20:22.799Z,98197.79
2018-04-27T03:22:51.075Z,98191.66
2018-04-27T03:25:19.359Z,98188.25
2018-04-27T03:27:47.679Z,98177.23
2018-04-27T03:30:15.955Z,98178.56
2018-04-27T03:32:44.826Z,98177.23
2018-04-27T03:35:13.144Z,98178.84
2018-04-27T03:37:41.427Z,98177.81
2018-04-27T03:40:10.208Z,98172.51
2018-04-27T03:42:38.542Z,98178.38
2018-04-27T03:45:06.935Z,98169.94
2018-04-27T03:47:35.257Z,98170.98
2018-04-27T03:50:03.547Z,98162.70
2018-04-27T03:52:32.865Z,98165.87
2018-04-27T03:55:01.679Z,98163.94
2018-04-27T03:57:30.532Z,98161.84
2018-04-27T04:00:16.452Z,98158.63
2018-04-27T04:03:02.283Z,98150.56
2018-04-27T04:05:32.199Z,98142.84
2018-04-27T04:08:00.487Z,98134.99
2018-04-27T04:10:29.984Z,98127.86
2018-04-27T04:12:59.023Z,98121.59
2018-04-27T04:15:27.309Z,98116.97
2018-04-27T04:17:55.623Z,98120.52
2018-04-27T04:20:23.899Z,98122.90
2018-04-27T04:22:52.180Z,98113.45
2018-04-27T04:25:20.486Z,98109.33
2018-04-27T04:27:48.783Z,98108.20
2018-04-27T04:30:17.116Z,98115.53
2018-04-27T04:32:45.739Z,98116.81
2018-04-27T04:35:14.207Z,98114.81
2018-04-27T04:37:42.510Z,98116.72
2018-04-27T04:40:10.799Z,98109.78
2018-04-27T04:42:39.115Z,98111.06
2018-04-27T04:45:07.460Z,98113.39
2018-04-27T04:47:36.039Z,98111.73
2018-04-27T04:50:04.347Z,98103.01
2018-04-27T04:52:33.447Z,98101.27
2018-04-27T04:55:01.708Z,98103.05
2018-04-27T04:57:29.983Z,98105.78
2018-04-27T04:59:58.264Z,98106.03
2018-04-27T05:02:26.620Z,98101.44
2018-04-27T05:04:55.423Z,98105.70
2018-04-27T05:07:24.471Z,98107.14
2018-04-27T05:09:52.884Z,98113.63
2018-04-27T05:12:21.437Z,98112.47
2018-04-27T05:14:49.723Z,98115.52
2018-04-27T05:17:18.120Z,98118.78
2018-04-27T05:20:00.935Z,98110.72
2018-04-27T05:22:29.532Z,98103.59
2018-04-27T05:24:57.927Z,98096.61
2018-04-27T05:27:26.212Z,98083.91
2018-04-27T05:29:55.083Z,98084.06
2018-04-27T05:32:23.591Z,98073.78
2018-04-27T05:34:51.867Z,98060.19
2018-04-27T05:37:20.952Z,98060.42
2018-04-27T05:39:49.240Z,98068.32
2018-04-27T05:42:17.535Z,98075.80
2018-04-27T05:44:45.863Z,98074.28
2018-04-27T05:47:14.148Z,98075.41
2018-04-27T05:49:42.451Z,98076.98
2018-04-27T05:52:11.311Z,98073.39
2018-04-27T05:54:39.775Z,98072.50
2018-04-27T05:57:08.071Z,98073.08
2018-04-27T05:59:36.364Z,98066.04
2018-04-27T06:02:04.690Z,98064.83
2018-04-27T06:04:33.064Z,98060.66
2018-04-27T06:07:01.284Z,98058.05
2018-04-27T06:09:29.604Z,98061.72
2018-04-27T06:11:57.892Z,98057.36
2018-04-27T06:14:26.179Z,98053.70
2018-04-27T06:16:54.719Z,98045.80
2018-04-27T06:19:23.223Z,98044.00
2018-04-27T06:21:51.567Z,98035.59
2018-04-27T06:24:19.899Z,98028.06
2018-04-27T06:26:48.179Z,98024.00
2018-04-27T06:29:16.463Z,98020.42
2018-04-27T06:31:44.998Z,98017.83
2018-04-27T06:34:13.747Z,98022.28
2018-04-27T06:36:42.036Z,98025.64
2018-04-27T06:39:10.355Z,98016.70
2018-04-27T06:41:39.303Z,98005.95
2018-04-27T06:44:07.649Z,98004.63
2018-04-27T06:46:35.932Z,97999.79
2018-04-27T06:49:04.216Z,97995.66
2018-04-27T06:51:32.528Z,97988.87
2018-04-27T06:54:01.592Z,97985.39
2018-04-27T06:56:29.954Z,97978.63
2018-04-27T06:58:58.374Z,97972.78
2018-04-27T07:01:26.986Z,97975.39
2018-04-27T07:03:55.671Z,97960.29
2018-04-27T07:06:23.956Z,97949.51
2018-04-27T07:08:52.244Z,97945.91
2018-04-27T07:11:21.228Z,97943.48
2018-04-27T07:13:49.515Z,97936.40
2018-04-27T07:16:17.802Z,97936.71
2018-04-27T07:18:46.759Z,97935.08
2018-04-27T07:21:15.042Z,97930.23
2018-04-27T07:23:43.501Z,97931.48
2018-04-27T07:26:11.832Z,97933.02
2018-04-27T07:28:40.119Z,97931.09
2018-04-27T07:31:08.406Z,97922.18
2018-04-27T07:33:36.719Z,97925.91
2018-04-27T07:36:05.474Z,97915.36
2018-04-27T07:38:34.151Z,97913.48
2018-04-27T07:41:02.589Z,97916.84
2018-04-27T07:43:31.854Z,97907.02
2018-04-27T07:46:00.888Z,97899.45
2018-04-27T07:48:29.251Z,97904.37
2018-04-27T07:50:58.303Z,97896.59
2018-04-27T07:53:26.682Z,97891.01
2018-04-27T07:55:55.008Z,97888.44
2018-04-27T07:58:23.295Z,97890.19
2018-04-27T08:00:51.582Z,97883.41
2018-04-27T08:03:19.902Z,97887.63
2018-04-27T08:05:48.323Z,97876.70
2018-04-27T08:08:16.767Z,97871.55
2018-04-27T08:10:45.122Z,97864.80
2018-04-27T08:13:13.414Z,97859.58
2018-04-27T08:15:41.731Z,97864.33
2018-04-27T08:18:10.275Z,97864.17
2018-04-27T08:20:38.579Z,97853.13
2018-04-27T08:23:06.918Z,97847.79
2018-04-27T08:25:35.223Z,97834.31
2018-04-27T08:28:04.052Z,97832.83
2018-04-27T08:30:34.003Z,97840.52
2018-04-27T08:33:02.316Z,97823.52
2018-04-27T08:35:30.623Z,97821.59
2018-04-27T08:37:58.931Z,97820.36
2018-04-27T08:40:27.299Z,97824.61
2018-04-27T08:42:55.619Z,97815.10
2018-04-27T08:45:23.959Z,97811.70
2018-04-27T08:47:52.239Z,97809.58
2018-04-27T08:50:20.722Z,97811.23
2018-04-27T08:52:48.926Z,97815.38
2018-04-27T08:55:17.208Z,97811.29
2018-04-27T08:57:45.523Z,97807.77
2018-04-27T09:00:13.815Z,97812.70
2018-04-27T09:02:42.680Z,97800.36
2018-04-27T09:05:10.951Z,97790.01
2018-04-27T09:07:40.010Z,97787.58
2018-04-27T09:10:08.307Z,97779.58
2018-04-27T09:12:36.621Z,97774.26
2018-04-27T09:15:05.556Z,97776.10
2018-04-27T09:17:34.255Z,97778.04
2018-04-27T09:20:02.543Z,97767.48
2018-04-27T09:22:32.359Z,97765.87
2018-04-27T09:25:00.687Z,97773.86
2018-04-27T09:27:28.987Z,97762.65
2018-04-27T09:29:57.270Z,97758.61
2018-04-27T09:32:26.206Z,97762.24
2018-04-27T09:34:54.495Z,97751.36
2018-04-27T09:37:23.423Z,97745.16
2018-04-27T09:39:52.191Z,97744.08
2018-04-27T09:42:20.470Z,97739.14
2018-04-27T09:44:48.746Z,97744.10
2018-04-27T09:47:17.398Z,97726.42
2018-04-27T09:49:46.445Z,97725.98
2018-04-27T09:52:14.735Z,97713.30
2018-04-27T09:54:43.423Z,97721.39
2018-04-27T09:57:11.994Z,97709.98
2018-04-27T09:59:40.326Z,97711.30
2018-04-27T10:02:09.179Z,97698.16
2018-04-27T10:04:37.459Z,97693.55
2018-04-27T10:07:05.803Z,97697.97
2018-04-27T10:09:34.118Z,97696.34
2018-04-27T10:12:02.399Z,97700.61
2018-04-27T10:14:30.738Z,97691.50
2018-04-27T10:16:59.027Z,97694.20
2018-04-27T10:19:27.317Z,97690.14
2018-04-27T10:21:55.627Z,97685.60
2018-04-27T10:24:23.907Z,97681.38
2018-04-27T10:26:52.327Z,97685.02
2018-04-27T10:29:20.615Z,97679.96
2018-04-27T10:31:48.915Z,97682.28
2018-04-27T10:34:17.779Z,97668.36
2018-04-27T10:36:46.067Z,97667.92
2018-04-27T10:39:14.376Z,97664.03
2018-04-27T10:41:42.685Z,97664.59
2018-04-27T10:44:10.979Z,97673.19
2018-04-27T10:46:39.291Z,97657.94
2018-04-27T10:49:07.574Z,97650.59
2018-04-27T10:51:35.910Z,97653.34
2018-04-27T10:54:05.175Z,97639.51
2018-04-27T10:56:33.455Z,97633.02
2018-04-27T10:59:01.781Z,97623.92
2018-04-27T11:01:30.064Z,97620.69
2018-04-27T11:03:58.360Z,97623.63
2018-04-27T11:06:26.732Z,97618.67
2018-04-27T11:08:56.139Z,97606.94
2018-04-27T11:11:24.431Z,97596.84
2018-04-27T11:13:52.775Z,97596.98
2018-04-27T11:16:21.080Z,97593.67
2018-04-27T11:18:49.923Z,97581.42
2018-04-27T11:21:18.330Z,97580.09
2018-04-27T11:23:47.331Z,97580.70
2018-04-27T11:26:15.619Z,97576.91
2018-04-27T11:28:44.487Z,97574.67
2018-04-27T11:31:13.790Z,97572.13
2018-04-27T11:33:42.163Z,97564.28
2018-04-27T11:36:10.919Z,97558.55
2018-04-27T11:38:39.525Z,97553.90
2018-04-27T11:41:08.036Z,97553.91
2018-04-27T11:43:36.343Z,97545.39
2018-04-27T11:46:05.315Z,97538.25
2018-04-27T11:48:33.603Z,97531.13
2018-04-27T11:51:01.947Z,97528.53
2018-04-27T11:53:30.239Z,97527.24
2018-04-27T11:55:58.551Z,97526.81
2018-04-27T11:58:27.515Z,97522.88
2018-04-27T12:00:56.146Z,97515.87
2018-04-27T12:03:24.759Z,97507.77
2018-04-27T12:05:53.095Z,97515.23
2018-04-27T12:08:22.123Z,97509.37
2018-04-27T12:10:50.458Z,97501.63
2018-04-27T12:13:19.548Z,97505.84
2018-04-27T12:15:48.255Z,97500.76
2018-04-27T12:18:16.878Z,97497.48
2018-04-27T12:20:45.217Z,97499.39
2018-04-27T12:23:13.499Z,97505.73
2018-04-27T12:25:41.790Z,97499.96
2018-04-27T12:28:10.166Z,97499.32
2018-04-27T12:30:38.447Z,97503.73
2018-04-27T12:33:06.791Z,97500.36
2018-04-27T12:35:35.471Z,97502.76
2018-04-27T12:38:03.891Z,97502.42
2018-04-27T12:40:32.763Z,97502.10
2018-04-27T12:43:01.390Z,97497.64
2018-04-27T12:45:29.681Z,97484.19
2018-04-27T12:47:58.334Z,97477.78
2018-04-27T12:50:26.621Z,97459.61
2018-04-27T12:52:54.928Z,97475.88
2018-04-27T12:55:24.015Z,97478.02
2018-04-27T12:57:52.305Z,97468.76
2018-04-27T13:00:20.811Z,97465.05
2018-04-27T13:02:49.149Z,97467.16
2018-04-27T13:05:18.107Z,97463.45
2018-04-27T13:07:46.684Z,97456.81
2018-04-27T13:10:15.484Z,97456.56
2018-04-27T13:12:43.771Z,97442.92
2018-04-27T13:15:12.359Z,97446.11
2018-04-27T13:17:40.715Z,97444.73
2018-04-27T13:20:09.133Z,97433.59
2018-04-27T13:22:37.436Z,97431.81
2018-04-27T13:25:06.912Z,97428.59
2018-04-27T13:27:35.826Z,97427.97
2018-04-27T13:30:04.116Z,97418.45
2018-04-27T13:32:32.414Z,97416.88
2018-04-27T13:35:00.731Z,97415.58
2018-04-27T13:37:29.852Z,97425.75
2018-04-27T13:39:58.948Z,97424.37
2018-04-27T13:42:28.123Z,97430.88
2018-04-27T13:44:56.614Z,97428.45
2018-04-27T13:47:25.439Z,97430.52
2018-04-27T13:49:54.044Z,97434.78
2018-04-27T13:52:22.959Z,97437.23
2018-04-27T13:54:51.910Z,97433.31
2018-04-27T13:57:20.895Z,97428.64
2018-04-27T13:59:49.236Z,97430.22
2018-04-27T14:02:18.083Z,97422.89
2018-04-27T14:04:46.823Z,97415.47
2018-04-27T14:07:17.579Z,97411.80
2018-04-27T14:09:46.807Z,97407.34
2018-04-27T14:12:15.110Z,97410.66
2018-04-27T14:14:43.455Z,97405.25
2018-04-27T14:17:11.847Z,97396.79
2018-04-27T14:19:40.567Z,97391.87
2018-04-27T14:22:09.183Z,97392.71
2018-04-27T14:24:37.976Z,97386.51
2018-04-27T14:27:06.755Z,97382.17
2018-04-27T14:29:35.338Z,97380.47
2018-04-27T14:32:04.135Z,97379.08
2018-04-27T14:34:32.567Z,97368.40
2018-04-27T14:37:00.899Z,97370.92
2018-04-27T14:39:29.187Z,97369.48
2018-04-27T14:41:57.476Z,97368.05
2018-04-27T14:44:25.815Z,97361.73
2018-04-27T14:46:54.864Z,97357.76
2018-04-27T14:49:23.235Z,97349.64
2018-04-27T14:51:52.723Z,97344.22
2018-04-27T14:54:21.895Z,97336.02
2018-04-27T14:56:50.229Z,97330.67
2018-04-27T14:59:18.598Z,97326.30
2018-04-27T15:01:46.935Z,97328.03
2018-04-27T15:04:15.267Z,97331.13
2018-04-27T15:06:43.599Z,97321.06
2018-04-27T15:09:12.399Z,97323.92
2018-04-27T15:11:40.686Z,97324.05
2018-04-27T15:14:08.991Z,97315.30
2018-04-27T15:16:37.275Z,97306.02
2018-04-27T15:19:05.684Z,97308.89
2018-04-27T15:21:33.984Z,97310.44
2018-04-27T15:24:02.340Z,97308.47
2018-04-27T15:26:30.969Z,97307.33
2018-04-27T15:28:59.671Z,97305.20
2018-04-27T15:31:27.951Z,97304.38
2018-04-27T15:33:56.279Z,97308.62
2018-04-27T15:36:24.563Z,97302.36
2018-04-27T15:38:52.848Z,97292.05
2018-04-27T15:41:21.183Z,97296.88
2018-04-27T15:43:49.512Z,97300.16
2018-04-27T15:46:17.801Z,97291.81
2018-04-27T15:48:46.126Z,97294.56
2018-04-27T15:51:14.406Z,97292.69
2018-04-27T15:53:43.450Z,97296.23
2018-04-27T15:56:12.247Z,97293.50
2018-04-27T15:58:40.556Z,97292.30
2018-04-27T16:01:08.907Z,97293.40
2018-04-27T16:03:37.251Z,97281.52
2018-04-27T16:06:05.530Z,97284.52
2018-04-27T16:08:33.816Z,97282.97
2018-04-27T16:11:02.155Z,97285.82
2018-04-27T16:14:05.843Z,97273.69
2018-04-27T16:16:35.355Z,97260.06
2018-04-27T16:19:04.359Z,97263.92
2018-04-27T16:21:32.647Z,97262.97
2018-04-27T16:24:00.963Z,97260.21
2018-04-27T16:26:31.594Z,97269.88
2018-04-27T16:28:59.963Z,97274.72
2018-04-27T16:31:28.277Z,97273.88
2018-04-27T16:33:58.096Z,97262.69
2018-04-27T16:36:26.463Z,97265.22
2018-04-27T16:38:54.742Z,97266.73
2018-04-27T16:41:23.057Z,97268.10
2018-04-27T16:43:51.371Z,97270.80
2018-04-27T16:46:19.663Z,97275.05
2018-04-27T16:48:47.949Z,97275.92
2018-04-27T16:51:16.287Z,97270.13
2018-04-27T16:53:44.582Z,97276.06
2018-04-27T16:56:12.876Z,97278.91
2018-04-27T16:58:41.691Z,97271.19
2018-04-27T17:01:10.011Z,97269.45
2018-04-27T17:03:38.346Z,97271.51
2018-04-27T17:06:07.398Z,97274.29
2018-04-27T17:08:35.700Z,97272.00
2018-04-27T17:11:04.685Z,97267.84
2018-04-27T17:13:33.081Z,97278.80
2018-04-27T17:16:01.939Z,97275.56
2018-04-27T17:18:31.142Z,97282.25
2018-04-27T17:20:59.505Z,97277.47
2018-04-27T17:23:27.892Z,97275.70
2018-04-27T17:25:56.823Z,97279.95
2018-04-27T17:28:25.213Z,97282.02
2018-04-27T17:30:53.507Z,97285.83
2018-04-27T17:33:21.847Z,97285.09
2018-04-27T17:35:50.147Z,97292.31
2018-04-27T17:38:18.435Z,97288.97
2018-04-27T17:40:47.572Z,97300.05
2018-04-27T17:43:15.855Z,97296.18
2018-04-27T17:45:44.211Z,97305.88
2018-04-27T17:48:12.504Z,97314.70
2018-04-27T17:50:40.763Z,97313.25
2018-04-27T17:53:09.051Z,97328.63
2018-04-27T17:55:37.458Z,97329.81
2018-04-27T17:58:06.786Z,97327.00
2018-04-27T18:00:35.076Z,97328.80
2018-04-27T18:03:03.427Z,97332.51
2018-04-27T18:05:31.719Z,97332.62
2018-04-27T18:07:59.999Z,97335.44
2018-04-27T18:10:28.471Z,97337.80
2018-04-27T18:12:56.988Z,97344.78
2018-04-27T18:15:25.323Z,97343.14
2018-04-27T18:17:53.631Z,97347.87
2018-04-27T18:20:21.959Z,97349.86
2018-04-27T18:22:50.484Z,97346.39
2018-04-27T18:25:19.692Z,97363.98
2018-04-27T18:27:47.999Z,97366.14
2018-04-27T18:30:16.689Z,97362.12
2018-04-27T18:32:45.058Z,97370.09
2018-04-27T18:35:13.439Z,97377.69
2018-04-27T18:37:41.827Z,97379.02
2018-04-27T18:40:10.139Z,97377.38
2018-04-27T18:42:38.541Z,97383.25
2018-04-27T18:45:06.775Z,97386.27
2018-04-27T18:47:35.066Z,97385.70
2018-04-27T18:50:03.380Z,97392.02
2018-04-27T18:52:32.204Z,97394.29
2018-04-27T18:55:00.739Z,97400.56
2018-04-27T18:57:29.592Z,97403.37
2018-04-27T18:59:57.999Z,97403.11
2018-04-27T19:02:26.359Z,97407.31
2018-04-27T19:04:54.644Z,97412.86
2018-04-27T19:07:22.973Z,97419.61
2018-04-27T19:09:51.299Z,97423.00
2018-04-27T19:12:19.722Z,97426.33
2018-04-27T19:14:48.776Z,97425.30
2018-04-27T19:17:18.376Z,97431.09
2018-04-27T19:19:46.691Z,97434.16
2018-04-27T19:22:27.818Z,97438.19
2018-04-27T19:24:56.121Z,97439.17
2018-04-27T19:27:24.418Z,97450.77
2018-04-27T19:29:52.772Z,97452.59
2018-04-27T19:32:21.086Z,97458.38
2018-04-27T19:34:49.430Z,97464.41
2018-04-27T19:37:17.731Z,97456.69
2018-04-27T19:39:46.024Z,97464.80
2018-04-27T19:42:14.317Z,97470.78
2018-04-27T19:44:42.679Z,97468.99
2018-04-27T19:47:10.968Z,97470.34
2018-04-27T19:49:39.259Z,97474.55
2018-04-27T19:52:07.611Z,97476.31
2018-04-27T19:54:35.899Z,97486.13
2018-04-27T19:57:04.185Z,97482.53
2018-04-27T19:59:32.862Z,97487.28
2018-04-27T20:02:01.149Z,97493.00
2018-04-27T20:04:29.695Z,97499.20
2018-04-27T20:06:58.506Z,97492.55
2018-04-27T20:09:32.694Z,97496.50
2018-04-27T20:12:01.188Z,97503.19
2018-04-27T20:14:44.464Z,97510.67
2018-04-27T20:17:13.719Z,97513.60
2018-04-27T20:19:47.070Z,97511.58
2018-04-27T20:22:21.595Z,97507.92
2018-04-27T20:24:49.911Z,97515.91
2018-04-27T20:27:20.167Z,97513.31
2018-04-27T20:29:49.186Z,97523.79
2018-04-27T20:32:18.215Z,97523.73
2018-04-27T20:34:46.587Z,97527.00
2018-04-27T20:37:15.115Z,97532.97
2018-04-27T20:39:44.479Z,97537.30
2018-04-27T20:42:12.868Z,97540.30
2018-04-27T20:44:41.427Z,97549.98
2018-04-27T20:47:10.335Z,97549.30
2018-04-27T20:49:38.719Z,97559.42
2018-04-27T20:52:07.005Z,97562.20
2018-04-27T20:54:35.963Z,97562.85
2018-04-27T20:57:06.028Z,97566.74
2018-04-27T20:59:34.796Z,97575.36
2018-04-27T21:02:03.092Z,97579.23
2018-04-27T21:04:31.502Z,97578.77
2018-04-27T21:07:00.707Z,97590.37
2018-04-27T21:09:29.004Z,97594.30
2018-04-27T21:11:57.327Z,97597.31
2018-04-27T21:14:25.620Z,97599.48
2018-04-27T21:16:53.936Z,97600.31
2018-04-27T21:19:22.272Z,97600.95
2018-04-27T21:21:50.563Z,97601.18
2018-04-27T21:24:22.095Z,97602.69
2018-04-27T21:26:50.384Z,97614.41
2018-04-27T21:29:19.592Z,97609.30
2018-04-27T21:31:47.932Z,97602.00
2018-04-27T21:34:17.143Z,97606.17
2018-04-27T21:36:49.204Z,97597.99
2018-04-27T21:39:24.966Z,97591.06
2018-04-27T21:41:56.383Z,97593.19
2018-04-27T21:44:30.087Z,97593.92
2018-04-27T22:00:31.771Z,97618.26
2018-04-27T22:03:06.254Z,97622.65
2018-04-27T22:19:03.039Z,97656.09
2018-04-27T22:21:34.703Z,97663.56
2018-04-27T22:24:04.463Z,97664.55
2018-04-27T22:26:37.291Z,97672.02
2018-04-27T22:42:55.978Z,97681.35
2018-04-27T22:45:36.671Z,97680.79
2018-04-27T22:48:10.547Z,97693.91
2018-04-27T22:50:47.260Z,97697.66
2018-04-27T22:53:15.567Z,97696.52
2018-04-27T22:55:43.864Z,97699.09
2018-04-27T22:58:13.057Z,97698.87
2018-04-27T23:00:53.023Z,97702.37
2018-04-27T23:03:22.835Z,97704.02
2018-04-27T23:05:53.863Z,97706.87
2018-04-27T23:08:22.171Z,97709.81
2018-04-27T23:11:21.198Z,97713.87
2018-04-27T23:27:38.586Z,97720.05
2018-04-27T23:30:07.608Z,97723.34
2018-04-27T23:32:37.579Z,97720.05
2018-04-27T23:35:05.919Z,97723.11
2018-04-27T23:37:34.979Z,97727.20
2018-04-27T23:40:03.423Z,97725.64
2018-04-27T23:42:32.428Z,97736.19
2018-04-27T23:45:00.715Z,97734.00
2018-04-27T23:47:29.046Z,97738.53
2018-04-27T23:49:57.339Z,97738.86
2018-04-27T23:52:25.618Z,97743.03
2018-04-27T23:54:53.977Z,97732.59
2018-04-27T23:57:24.483Z,97742.48
2018-04-27T23:59:55.355Z,97744.76
